createdAt,value
2022-08-05T00:02:07.717Z,20.40
2022-08-05T00:07:27.063Z,20.00
2022-08-05T00:12:13.041Z,19.70
2022-08-05T00:17:19.600Z,19.80
2022-08-05T00:22:25.829Z,19.60
2022-08-05T00:27:36.262Z,19.60
2022-08-05T00:32:38.369Z,19.30
2022-08-05T00:37:53.482Z,19.40
2022-08-05T00:42:53.749Z,19.30
2022-08-05T00:48:05.390Z,19.30
2022-08-05T00:53:09.728Z,19.20
2022-08-05T00:58:16.807Z,19.20
2022-08-05T01:03:31.037Z,18.90
2022-08-05T01:08:43.344Z,18.80
2022-08-05T01:13:59.748Z,18.70
2022-08-05T01:19:56.357Z,18.60
2022-08-05T01:24:42.514Z,18.50
2022-08-05T01:29:52.113Z,18.70
2022-08-05T01:35:10.584Z,18.60
2022-08-05T01:40:14.019Z,18.50
2022-08-05T01:45:22.556Z,18.20
2022-08-05T01:50:37.698Z,18.10
2022-08-05T01:55:47.127Z,18.00
2022-08-05T02:00:55.637Z,17.90
2022-08-05T02:06:12.678Z,17.90
2022-08-05T02:11:15.186Z,18.10
2022-08-05T02:16:28.397Z,18.10
2022-08-05T02:21:43.291Z,18.00
2022-08-05T02:26:53.946Z,17.50
2022-08-05T02:31:58.592Z,17.50
2022-08-05T02:37:09.648Z,17.30
2022-08-05T02:42:22.556Z,17.50
2022-08-05T02:47:25.634Z,17.60
2022-08-05T02:52:34.679Z,17.40
2022-08-05T02:58:09.460Z,17.40
2022-08-05T03:02:50.187Z,17.00
2022-08-05T03:08:00.821Z,17.30
2022-08-05T03:18:09.593Z,17.30
2022-08-05T03:23:17.737Z,17.10
2022-08-05T03:28:23.909Z,17.20
2022-08-05T03:33:32.191Z,16.90
2022-08-05T03:38:40.055Z,16.90
2022-08-05T03:44:09.292Z,16.80
2022-08-05T03:48:54.410Z,17.10
2022-08-05T03:55:07.189Z,17.10
2022-08-05T03:59:20.704Z,17.20
2022-08-05T04:04:27.938Z,17.50
2022-08-05T04:09:36.670Z,17.30
2022-08-05T04:14:42.513Z,17.70
2022-08-05T04:19:54.583Z,17.90
2022-08-05T04:24:57.141Z,17.80
2022-08-05T04:30:04.698Z,18.20
2022-08-05T04:35:17.730Z,18.60
2022-08-05T04:40:19.770Z,18.80
2022-08-05T04:45:47.867Z,18.90
2022-08-05T04:50:53.485Z,18.90
2022-08-05T04:56:15.531Z,19.40
2022-08-05T05:00:51.397Z,19.60
2022-08-05T05:06:38.918Z,20.10
2022-08-05T05:11:03.565Z,20.20
2022-08-05T05:16:10.525Z,20.40
2022-08-05T05:21:18.024Z,20.90
2022-08-05T05:26:28.628Z,21.10
2022-08-05T05:36:37.424Z,21.70
2022-08-05T05:41:42.838Z,21.90
2022-08-05T05:46:49.647Z,22.00
2022-08-05T05:51:57.798Z,22.00
2022-08-05T05:57:02.996Z,22.00
2022-08-05T06:02:09.008Z,22.10
2022-08-05T06:07:16.087Z,22.70
2022-08-05T06:12:22.098Z,23.30
2022-08-05T06:17:30.972Z,23.90
2022-08-05T06:22:37.485Z,23.60
2022-08-05T06:28:12.137Z,23.30
2022-08-05T06:32:52.534Z,23.70
2022-08-05T06:37:59.550Z,24.00
2022-08-05T06:43:05.142Z,24.70
2022-08-05T06:48:52.683Z,25.70
2022-08-05T06:53:22.612Z,26.20
2022-08-05T06:58:35.323Z,26.70
2022-08-05T07:03:35.632Z,26.60
2022-08-05T07:08:41.982Z,27.30
2022-08-05T07:14:05.582Z,27.70
2022-08-05T07:19:12.572Z,27.90
2022-08-05T07:24:19.435Z,28.30
2022-08-05T07:30:23.947Z,28.70
2022-08-05T07:34:34.079Z,28.90
2022-08-05T07:40:26.571Z,29.20
2022-08-05T07:44:48.313Z,29.70
2022-08-05T07:49:54.840Z,30.00
2022-08-05T07:55:01.053Z,30.20
2022-08-05T08:00:10.493Z,30.70
2022-08-05T08:05:14.860Z,30.50
2022-08-05T08:10:20.611Z,30.70
2022-08-05T08:15:37.371Z,31.00
2022-08-05T08:20:43.395Z,31.40
2022-08-05T08:26:00.261Z,31.50
2022-08-05T08:30:49.969Z,31.60
2022-08-05T08:36:29.479Z,31.40
2022-08-05T08:41:06.658Z,32.10
2022-08-05T08:46:15.595Z,32.10
2022-08-05T08:51:54.581Z,31.80
2022-08-05T08:56:28.119Z,32.40
2022-08-05T09:01:33.979Z,32.50
2022-08-05T09:06:39.610Z,32.90
2022-08-05T09:11:51.758Z,32.60
2022-08-05T09:16:54.687Z,33.20
2022-08-05T09:22:22.173Z,33.40
2022-08-05T09:27:09.845Z,33.30
2022-08-05T09:32:40.092Z,32.80
2022-08-05T09:38:17.953Z,33.50
2022-08-05T09:42:41.656Z,33.90
2022-08-05T09:47:56.189Z,33.10
2022-08-05T09:52:57.723Z,33.40
2022-08-05T09:58:14.767Z,33.70
2022-08-05T10:03:20.680Z,33.70
2022-08-05T10:08:36.167Z,33.10
2022-08-05T10:13:45.732Z,32.70
2022-08-05T10:18:44.833Z,33.40
2022-08-05T10:23:59.497Z,33.70
2022-08-05T10:28:59.929Z,33.30
2022-08-05T10:34:07.854Z,33.10
2022-08-05T10:39:25.182Z,33.30
2022-08-05T10:44:30.527Z,34.40
2022-08-05T10:49:48.846Z,33.60
2022-08-05T10:55:06.108Z,34.00
2022-08-05T11:00:24.940Z,33.20
2022-08-05T11:05:32.119Z,33.70
2022-08-05T11:10:50.319Z,34.20
2022-08-05T11:16:00.454Z,33.50
2022-08-05T11:20:59.063Z,34.30
2022-08-05T11:26:10.219Z,34.50
2022-08-05T11:31:54.202Z,33.60
2022-08-05T11:36:44.815Z,33.70
2022-08-05T11:42:01.264Z,33.90
2022-08-05T11:47:10.868Z,34.20
2022-08-05T11:52:11.467Z,33.70
2022-08-05T11:57:26.065Z,34.20
2022-08-05T12:02:31.701Z,34.00
2022-08-05T12:08:07.900Z,34.70
2022-08-05T12:12:58.131Z,35.00
2022-08-05T12:18:04.274Z,34.50
2022-08-05T12:23:14.608Z,34.10
2022-08-05T12:28:37.954Z,34.10
2022-08-05T12:33:44.099Z,34.90
2022-08-05T12:38:52.591Z,35.20
2022-08-05T12:44:02.057Z,34.80
2022-08-05T12:49:16.686Z,34.50
2022-08-05T12:54:26.619Z,35.20
2022-08-05T13:00:08.809Z,34.50
2022-08-05T13:04:52.253Z,35.20
2022-08-05T13:09:57.061Z,35.40
2022-08-05T13:15:05.475Z,35.10
2022-08-05T13:20:14.681Z,34.70
2022-08-05T13:25:52.152Z,35.00
2022-08-05T13:30:33.802Z,35.40
2022-08-05T13:35:47.625Z,35.20
2022-08-05T13:40:49.968Z,35.20
2022-08-05T13:45:52.533Z,35.20
2022-08-05T13:51:07.577Z,35.20
2022-08-05T13:56:18.017Z,35.30
2022-08-05T14:01:25.909Z,35.00
2022-08-05T14:06:28.719Z,34.70
2022-08-05T14:12:04.488Z,34.50
2022-08-05T14:16:44.368Z,34.40
2022-08-05T14:22:09.724Z,34.80
2022-08-05T14:27:16.791Z,34.40
2022-08-05T14:32:12.325Z,34.00
2022-08-05T14:37:14.181Z,33.40
2022-08-05T14:42:21.781Z,34.10
2022-08-05T14:48:03.361Z,34.30
2022-08-05T14:52:52.052Z,33.50
2022-08-05T14:57:54.337Z,33.40
2022-08-05T15:02:48.513Z,33.70
2022-08-05T15:08:06.481Z,33.80
2022-08-05T15:13:04.811Z,33.80
2022-08-05T15:18:10.503Z,33.90
2022-08-05T15:23:18.800Z,33.70
2022-08-05T15:28:27.809Z,34.00
2022-08-05T15:34:18.506Z,33.80
2022-08-05T15:38:41.053Z,33.70
2022-08-05T15:43:47.138Z,33.60
2022-08-05T15:49:00.936Z,33.30
2022-08-05T15:54:19.918Z,33.50
2022-08-05T15:59:27.366Z,33.00
2022-08-05T16:04:35.183Z,33.10
2022-08-05T16:09:41.556Z,32.90
2022-08-05T16:14:47.965Z,32.50
2022-08-05T16:20:05.296Z,31.80
2022-08-05T16:25:00.809Z,31.40
2022-08-05T16:30:23.133Z,30.90
2022-08-05T16:35:18.749Z,31.00
2022-08-05T16:40:29.470Z,30.80
2022-08-05T16:46:06.669Z,30.70
2022-08-05T16:50:39.842Z,30.60
2022-08-05T16:55:46.836Z,30.40
2022-08-05T17:00:52.082Z,30.00
2022-08-05T17:05:59.317Z,30.30
2022-08-05T17:11:05.354Z,30.40
2022-08-05T17:16:32.556Z,30.30
2022-08-05T17:21:21.029Z,30.10
2022-08-05T17:26:28.778Z,29.80
2022-08-05T17:31:57.126Z,29.70
2022-08-05T17:36:42.186Z,29.30
2022-08-05T17:42:28.441Z,29.10
2022-08-05T17:46:56.412Z,28.90
2022-08-05T17:52:03.134Z,28.80
2022-08-05T17:57:12.375Z,28.80
2022-08-05T18:02:16.293Z,28.60
2022-08-05T18:07:21.586Z,28.60
2022-08-05T18:12:27.410Z,28.60
2022-08-05T18:17:59.162Z,28.30
2022-08-05T18:22:53.968Z,28.30
2022-08-05T18:27:52.053Z,28.00
2022-08-05T18:33:00.135Z,27.80
2022-08-05T18:38:02.045Z,27.70
2022-08-05T18:43:16.588Z,27.60
2022-08-05T18:48:30.629Z,27.50
2022-08-05T18:53:26.345Z,27.50
2022-08-05T18:58:32.194Z,27.10
2022-08-05T19:03:55.750Z,26.70
2022-08-05T19:08:47.174Z,26.10
2022-08-05T19:14:00.723Z,26.00
2022-08-05T19:19:00.662Z,25.90
2022-08-05T19:24:12.606Z,25.60
2022-08-05T19:29:14.026Z,25.50
2022-08-05T19:34:21.459Z,25.00
2022-08-05T19:39:28.318Z,24.10
2022-08-05T19:44:37.450Z,24.40
2022-08-05T19:49:41.415Z,23.70
2022-08-05T19:54:47.680Z,23.80
2022-08-05T20:00:01.799Z,23.40
2022-08-05T20:05:01.222Z,23.20
2022-08-05T20:10:13.427Z,23.50
2022-08-05T20:15:48.816Z,23.10
2022-08-05T20:20:25.829Z,22.80
2022-08-05T20:25:39.767Z,22.40
2022-08-05T20:30:42.063Z,22.00
2022-08-05T20:35:47.092Z,21.80
2022-08-05T20:40:53.715Z,22.00
2022-08-05T20:46:01.908Z,21.90
2022-08-05T20:51:08.349Z,22.50
2022-08-05T20:56:14.185Z,22.70
2022-08-05T21:01:19.847Z,22.50
2022-08-05T21:06:28.326Z,22.40
2022-08-05T21:12:07.726Z,22.50
2022-08-05T21:16:40.921Z,22.60
2022-08-05T21:21:50.949Z,22.50
2022-08-05T21:26:58.628Z,22.40
2022-08-05T21:32:04.352Z,22.20
2022-08-05T21:37:08.466Z,22.00
2022-08-05T21:42:30.924Z,21.80
2022-08-05T21:47:54.967Z,22.10
2022-08-05T21:52:28.984Z,22.10
2022-08-05T21:57:34.277Z,21.90
2022-08-05T22:02:41.475Z,21.30
2022-08-05T22:07:58.323Z,21.60
2022-08-05T22:12:57.379Z,21.60
2022-08-05T22:18:02.925Z,21.50
2022-08-05T22:24:02.728Z,21.50
2022-08-05T22:28:33.875Z,21.40
2022-08-05T22:33:56.890Z,21.30
2022-08-05T22:38:48.912Z,21.40
2022-08-05T22:43:55.863Z,21.40
2022-08-05T22:49:01.066Z,21.50
2022-08-05T22:54:07.245Z,21.40
2022-08-05T22:59:44.251Z,21.40
2022-08-05T23:04:21.568Z,21.40
2022-08-05T23:09:27.997Z,21.30
2022-08-05T23:14:33.310Z,21.20
2022-08-05T23:19:46.706Z,21.20
2022-08-05T23:24:48.487Z,21.20
2022-08-05T23:29:53.933Z,21.30
2022-08-05T23:35:00.821Z,21.20
2022-08-05T23:40:09.552Z,21.20
2022-08-05T23:45:15.772Z,21.20
2022-08-05T23:50:21.218Z,21.20
2022-08-05T23:55:31.178Z,21.10
